Sterling, Georgia
Current Conditions -  °F | °C
As of 7:55 PM on Monday 24 Nov 2014 (Local Time) from KBQK Reporting Station
Broken Clouds Broken Clouds  
Wind Chill: 70°   Ceiling: 4400
Heat Index: 70°   Visibility: 5mi
Dew Point: 66°   Wind: 0mph
Humidity: 88%   Direction: NA
Pressure: 29.97"   Gusts: NA
Location:  31.2665°N, 81.6074°W
Report Text: KBQK 250055Z AUTO 00000KT 5SM SCT033 BKN044 BKN070 21/19 A2997 RMK AO1
Loading
Personal Weather Stations






























Interactive Weather Map New forecast layout! Learn more

10-Day Weather Forecast

Advertisements
Track Severe Weather on mobile